createdAt,value
2022-10-14T00:01:08.414Z,42.90
2022-10-14T00:03:36.701Z,39.97
2022-10-14T00:06:15.225Z,36.78
2022-10-14T00:08:43.609Z,40.45
2022-10-14T00:11:17.332Z,37.85
2022-10-14T00:13:44.741Z,40.20
2022-10-14T00:16:43.762Z,40.85
2022-10-14T00:19:12.097Z,37.50
2022-10-14T00:21:40.917Z,42.10
2022-10-14T00:24:08.526Z,37.08
2022-10-14T00:26:37.222Z,39.42
2022-10-14T00:29:07.437Z,45.58
2022-10-14T00:31:35.329Z,39.47
2022-10-14T00:34:02.469Z,39.45
2022-10-14T00:36:29.637Z,40.30
2022-10-14T00:38:56.578Z,38.92
2022-10-14T00:41:26.889Z,39.00
2022-10-14T00:44:02.585Z,38.75
2022-10-14T00:46:35.918Z,36.03
2022-10-14T00:49:11.764Z,34.95
2022-10-14T00:51:40.951Z,39.50
2022-10-14T00:54:09.495Z,33.70
2022-10-14T00:56:36.761Z,39.45
2022-10-14T00:59:08.403Z,33.55
2022-10-14T01:01:35.287Z,33.67
2022-10-14T01:04:02.184Z,39.53
2022-10-14T01:06:59.783Z,32.33
2022-10-14T01:09:38.858Z,35.30
2022-10-14T01:12:33.947Z,33.72
2022-10-14T01:15:14.621Z,36.85
2022-10-14T01:17:51.045Z,35.30
2022-10-14T01:20:41.846Z,40.53
2022-10-14T01:23:37.001Z,37.80
2022-10-14T01:26:24.618Z,41.55
2022-10-14T01:29:09.614Z,38.15
2022-10-14T01:31:44.037Z,41.63
2022-10-14T01:34:18.619Z,42.13
2022-10-14T01:36:53.771Z,42.13
2022-10-14T01:39:29.512Z,44.65
2022-10-14T01:42:09.252Z,42.95
2022-10-14T01:44:40.950Z,39.30
2022-10-14T01:47:12.122Z,37.90
2022-10-14T01:49:55.145Z,38.13
2022-10-14T01:52:28.005Z,38.80
2022-10-14T01:54:59.054Z,39.63
2022-10-14T01:57:29.662Z,38.35
2022-10-14T01:59:57.730Z,41.10
2022-10-14T02:02:25.231Z,39.80
2022-10-14T02:04:52.430Z,35.90
2022-10-14T02:07:33.034Z,40.30
2022-10-14T02:10:19.053Z,37.53
2022-10-14T02:13:14.407Z,41.92
2022-10-14T02:16:07.490Z,37.65
2022-10-14T02:18:54.090Z,36.67
2022-10-14T02:21:29.948Z,35.65
2022-10-14T02:24:26.578Z,38.00
2022-10-14T02:26:55.790Z,44.38
2022-10-14T02:29:25.462Z,35.15
2022-10-14T02:31:54.977Z,42.92
2022-10-14T02:34:25.009Z,37.88
2022-10-14T02:36:54.410Z,40.22
2022-10-14T02:39:30.204Z,36.60
2022-10-14T02:41:57.825Z,43.25
2022-10-14T02:44:24.946Z,39.10
2022-10-14T02:46:51.742Z,38.95
2022-10-14T02:49:18.822Z,39.60
2022-10-14T02:51:45.702Z,39.22
2022-10-14T02:54:12.647Z,44.15
2022-10-14T02:56:39.724Z,42.47
2022-10-14T02:59:06.906Z,45.80
2022-10-14T03:01:37.568Z,38.45
2022-10-14T03:04:06.974Z,41.58
2022-10-14T03:06:33.862Z,42.20
2022-10-14T03:09:01.111Z,43.55
2022-10-14T03:11:28.022Z,44.80
2022-10-14T03:14:01.738Z,41.08
2022-10-14T03:16:28.606Z,42.80
2022-10-14T03:18:56.095Z,48.78
2022-10-14T03:21:38.096Z,44.13
2022-10-14T03:24:08.693Z,43.05
2022-10-14T03:29:27.210Z,45.33
2022-10-14T03:32:08.160Z,44.65
2022-10-14T03:34:57.767Z,47.85
2022-10-14T03:37:25.264Z,49.08
2022-10-14T03:39:55.326Z,46.53
2022-10-14T03:42:22.691Z,46.20
2022-10-14T03:44:50.501Z,46.72
2022-10-14T03:47:28.658Z,47.45
2022-10-14T03:49:55.709Z,44.35
2022-10-14T03:52:37.100Z,47.35
2022-10-14T03:55:08.398Z,43.38
2022-10-14T03:57:36.079Z,38.22
2022-10-14T04:00:06.302Z,40.33
2022-10-14T04:02:42.480Z,40.38
2022-10-14T04:05:35.591Z,43.55
2022-10-14T04:08:09.387Z,37.30
2022-10-14T04:10:37.813Z,44.00
2022-10-14T04:13:04.975Z,43.80
2022-10-14T04:15:37.165Z,40.05
2022-10-14T04:18:22.653Z,42.58
2022-10-14T04:20:51.815Z,41.15
2022-10-14T04:23:22.556Z,48.30
2022-10-14T04:25:54.688Z,41.42
2022-10-14T04:28:23.227Z,40.83
2022-10-14T04:30:58.715Z,45.55
2022-10-14T04:33:32.447Z,38.70
2022-10-14T04:36:06.961Z,41.28
2022-10-14T04:38:37.187Z,55.45
2022-10-14T04:41:07.353Z,42.78
2022-10-14T04:43:35.181Z,47.10
2022-10-14T04:46:16.953Z,46.38
2022-10-14T04:48:43.927Z,45.88
2022-10-14T04:51:11.635Z,47.17
2022-10-14T04:53:48.960Z,44.15
2022-10-14T04:56:29.141Z,47.65
2022-10-14T04:59:00.520Z,43.22
2022-10-14T05:01:46.099Z,51.10
2022-10-14T05:04:14.500Z,39.92
2022-10-14T05:06:43.780Z,44.33
2022-10-14T05:09:13.396Z,45.92
2022-10-14T05:11:40.443Z,48.53
2022-10-14T05:14:07.353Z,49.30
2022-10-14T05:16:36.812Z,48.65
2022-10-14T05:19:04.288Z,46.72
2022-10-14T05:21:33.324Z,49.45
2022-10-14T05:24:10.983Z,44.63
2022-10-14T05:26:39.693Z,46.00
2022-10-14T05:29:11.423Z,44.72
2022-10-14T05:31:39.731Z,54.00
2022-10-14T05:34:22.987Z,46.90
2022-10-14T05:36:52.108Z,43.90
2022-10-14T05:39:21.020Z,43.80
2022-10-14T05:41:48.286Z,47.53
2022-10-14T05:44:19.724Z,45.50
2022-10-14T05:46:48.673Z,46.55
2022-10-14T05:49:15.565Z,49.03
2022-10-14T05:51:43.834Z,44.17
2022-10-14T05:54:17.305Z,43.08
2022-10-14T05:56:44.657Z,44.65
2022-10-14T05:59:12.101Z,41.35
2022-10-14T06:01:40.760Z,39.95
2022-10-14T06:04:08.024Z,49.58
2022-10-14T06:06:35.082Z,43.90
2022-10-14T06:09:02.060Z,44.25
2022-10-14T06:11:28.890Z,42.22
2022-10-14T06:13:55.948Z,45.08
2022-10-14T06:16:23.230Z,37.70
2022-10-14T06:18:54.269Z,37.97
2022-10-14T06:21:22.516Z,43.72
2022-10-14T06:23:49.708Z,43.15
2022-10-14T06:26:16.520Z,37.20
2022-10-14T06:28:43.394Z,40.00
2022-10-14T06:31:10.196Z,37.80
2022-10-14T06:33:37.104Z,39.33
2022-10-14T06:36:05.792Z,38.53
2022-10-14T06:38:33.052Z,39.75
2022-10-14T06:40:59.950Z,38.90
2022-10-14T06:43:27.626Z,47.13
2022-10-14T06:45:57.013Z,45.38
2022-10-14T06:48:24.008Z,45.67
2022-10-14T06:50:50.828Z,42.60
2022-10-14T06:53:17.769Z,40.35
2022-10-14T06:55:44.717Z,38.00
2022-10-14T06:58:11.592Z,38.55
2022-10-14T07:00:38.490Z,44.55
2022-10-14T07:03:05.420Z,41.40
2022-10-14T07:05:32.601Z,48.83
2022-10-14T07:10:31.213Z,42.13
2022-10-14T07:12:58.145Z,40.03
2022-10-14T07:15:24.979Z,40.25
2022-10-14T07:17:51.908Z,41.03
2022-10-14T07:20:18.954Z,41.60
2022-10-14T07:22:45.759Z,41.08
2022-10-14T07:25:12.596Z,40.92
2022-10-14T07:27:39.598Z,48.30
2022-10-14T07:34:40.801Z,39.70
2022-10-14T07:37:12.936Z,42.35
2022-10-14T07:39:40.458Z,44.38
2022-10-14T07:42:10.850Z,44.08
2022-10-14T07:44:54.710Z,41.78
2022-10-14T07:50:04.628Z,39.55
2022-10-14T07:52:36.285Z,41.90
2022-10-14T07:55:04.780Z,40.13
2022-10-14T07:57:32.561Z,41.85
2022-10-14T08:00:00.561Z,39.08
2022-10-14T08:02:29.915Z,44.15
2022-10-14T08:05:19.077Z,43.35
2022-10-14T08:07:55.877Z,38.92
2022-10-14T08:10:26.694Z,41.38
2022-10-14T08:13:10.888Z,41.25
2022-10-14T08:15:44.813Z,40.40
2022-10-14T08:18:25.820Z,36.60
2022-10-14T08:20:58.137Z,41.42
2022-10-14T08:23:26.861Z,36.72
2022-10-14T08:25:59.590Z,39.88
2022-10-14T08:28:46.204Z,39.20
2022-10-14T08:31:20.240Z,39.63
2022-10-14T08:33:50.410Z,35.42
2022-10-14T08:36:20.203Z,38.80
2022-10-14T08:38:54.302Z,35.42
2022-10-14T08:42:05.832Z,33.08
2022-10-14T08:45:22.818Z,40.85
2022-10-14T08:48:51.414Z,36.40
2022-10-14T08:55:31.961Z,36.00
2022-10-14T08:58:50.297Z,41.33
2022-10-14T09:01:49.802Z,41.25
2022-10-14T09:04:53.790Z,36.70
2022-10-14T09:09:05.666Z,36.53
2022-10-14T09:12:05.189Z,37.80
2022-10-14T09:18:59.606Z,37.75
2022-10-14T09:32:56.954Z,36.38
2022-10-14T09:35:25.394Z,32.92
2022-10-14T09:37:52.739Z,37.50
2022-10-14T09:40:35.785Z,40.22
2022-10-14T09:43:08.611Z,40.80
2022-10-14T09:45:58.306Z,39.42
2022-10-14T09:48:40.136Z,38.88
2022-10-14T09:51:32.207Z,40.00
2022-10-14T09:54:01.929Z,40.67
2022-10-14T09:56:40.829Z,39.00
2022-10-14T09:59:21.274Z,38.45
2022-10-14T10:02:01.274Z,39.75
2022-10-14T10:04:40.668Z,42.67
2022-10-14T10:07:25.117Z,42.72
2022-10-14T10:09:59.959Z,36.78
2022-10-14T10:12:33.155Z,37.95
2022-10-14T10:15:07.289Z,40.08
2022-10-14T10:17:41.687Z,37.20
2022-10-14T10:20:37.807Z,34.28
2022-10-14T10:23:25.334Z,37.72
2022-10-14T10:25:52.432Z,33.30
2022-10-14T10:28:28.002Z,35.38
2022-10-14T10:31:25.503Z,37.70
2022-10-14T10:43:18.733Z,33.08
2022-10-14T10:46:19.654Z,30.60
2022-10-14T10:49:06.197Z,32.90
2022-10-14T10:51:39.426Z,31.42
2022-10-14T10:54:25.049Z,38.38
2022-10-14T10:56:57.613Z,32.80
2022-10-14T10:59:46.766Z,30.73
2022-10-14T11:02:16.406Z,33.95
2022-10-14T11:07:53.961Z,31.67
2022-10-14T11:10:54.457Z,37.97
2022-10-14T11:13:41.011Z,33.13
2022-10-14T11:16:46.705Z,33.03
2022-10-14T11:19:33.452Z,35.03
2022-10-14T11:22:10.596Z,30.73
2022-10-14T11:24:40.570Z,35.17
2022-10-14T11:27:23.923Z,35.13
2022-10-14T11:30:03.942Z,31.20
2022-10-14T11:32:49.467Z,34.00
2022-10-14T11:35:25.109Z,28.55
2022-10-14T11:38:05.657Z,27.85
2022-10-14T11:40:45.430Z,26.80
2022-10-14T11:43:22.354Z,33.47
2022-10-14T11:45:55.048Z,31.13
2022-10-14T11:48:51.216Z,27.23
2022-10-14T11:51:40.590Z,27.90
2022-10-14T11:54:07.319Z,28.08
2022-10-14T11:56:57.659Z,28.30
2022-10-14T11:59:40.379Z,26.42
2022-10-14T12:02:26.694Z,26.70
2022-10-14T12:05:21.311Z,45.38
2022-10-14T12:10:28.990Z,40.42
2022-10-14T12:12:57.104Z,31.27
2022-10-14T12:15:26.127Z,32.08
2022-10-14T12:18:04.309Z,32.97
2022-10-14T12:20:54.331Z,30.30
2022-10-14T12:23:36.357Z,29.95
2022-10-14T12:26:15.252Z,28.08
2022-10-14T12:28:43.201Z,32.83
2022-10-14T12:31:28.464Z,31.60
2022-10-14T12:34:13.891Z,27.08
2022-10-14T12:36:46.749Z,28.52
2022-10-14T12:39:19.592Z,29.90
2022-10-14T12:41:59.881Z,28.77
2022-10-14T12:44:45.455Z,29.80
2022-10-14T12:47:28.843Z,29.50
2022-10-14T12:49:58.144Z,30.33
2022-10-14T12:52:28.759Z,36.05
2022-10-14T12:54:56.197Z,31.33
2022-10-14T12:57:32.289Z,32.38
2022-10-14T13:00:27.017Z,28.85
2022-10-14T13:03:00.000Z,27.20
2022-10-14T13:05:40.055Z,30.63
2022-10-14T13:08:25.624Z,35.45
2022-10-14T13:11:02.385Z,31.75
2022-10-14T13:13:58.726Z,31.58
2022-10-14T13:16:26.072Z,29.38
2022-10-14T13:18:57.913Z,30.65
2022-10-14T13:21:31.264Z,31.45
2022-10-14T13:24:22.712Z,32.95
2022-10-14T13:26:55.890Z,37.75
2022-10-14T13:29:49.773Z,35.35
2022-10-14T13:32:31.182Z,30.50
2022-10-14T13:35:24.148Z,31.98
2022-10-14T13:38:13.068Z,33.38
2022-10-14T13:40:46.668Z,31.63
2022-10-14T13:43:20.963Z,28.98
2022-10-14T13:45:52.640Z,29.83
2022-10-14T13:48:32.040Z,29.23
2022-10-14T13:51:36.202Z,30.67
2022-10-14T13:54:22.410Z,32.35
2022-10-14T13:57:42.663Z,31.33
2022-10-14T14:00:39.450Z,30.08
2022-10-14T14:02:44.631Z,31.30
2022-10-14T14:05:20.472Z,33.17
2022-10-14T14:10:42.473Z,30.98
2022-10-14T14:13:19.178Z,33.40
2022-10-14T14:15:51.040Z,30.45
2022-10-14T14:18:56.681Z,28.83
2022-10-14T14:21:32.513Z,35.25
2022-10-14T14:24:01.649Z,33.58
2022-10-14T14:26:37.117Z,29.63
2022-10-14T14:29:06.941Z,28.48
2022-10-14T14:31:54.637Z,32.45
2022-10-14T14:34:23.505Z,34.88
2022-10-14T14:36:55.530Z,33.50
2022-10-14T14:39:30.840Z,28.48
2022-10-14T14:41:59.563Z,35.30
2022-10-14T14:44:31.456Z,31.65
2022-10-14T14:47:04.154Z,29.55
2022-10-14T14:49:37.060Z,52.17
2022-10-14T14:52:05.661Z,62.45
2022-10-14T14:54:32.608Z,39.42
2022-10-14T14:57:07.033Z,55.38
2022-10-14T14:59:39.597Z,29.38
2022-10-14T15:02:21.678Z,34.78
2022-10-14T15:05:05.991Z,30.42
2022-10-14T15:07:33.774Z,55.13
2022-10-14T15:10:03.671Z,31.83
2022-10-14T15:12:42.354Z,30.98
2022-10-14T15:15:32.959Z,26.45
2022-10-14T15:18:24.523Z,26.65
2022-10-14T15:20:51.741Z,30.70
2022-10-14T15:23:45.917Z,26.15
2022-10-14T15:26:28.037Z,126.07
2022-10-14T15:29:14.683Z,29.45
2022-10-14T15:32:01.796Z,60.25
2022-10-14T15:34:29.034Z,29.02
2022-10-14T15:36:55.877Z,25.88
2022-10-14T15:39:23.393Z,30.20
2022-10-14T15:41:50.259Z,25.63
2022-10-14T15:44:17.131Z,25.80
2022-10-14T15:47:03.598Z,65.97
2022-10-14T15:49:39.138Z,28.67
2022-10-14T15:52:06.080Z,24.00
2022-10-14T15:54:33.301Z,26.35
2022-10-14T15:57:00.274Z,23.35
2022-10-14T15:59:27.534Z,25.77
2022-10-14T16:01:54.804Z,25.23
2022-10-14T16:04:24.646Z,23.40
2022-10-14T16:06:55.417Z,27.08
2022-10-14T16:09:27.871Z,22.25
2022-10-14T16:11:57.858Z,23.20
2022-10-14T16:14:27.086Z,22.98
2022-10-14T16:16:54.270Z,21.58
2022-10-14T16:19:21.530Z,19.80
2022-10-14T16:21:49.885Z,23.85
2022-10-14T16:24:19.071Z,23.75
2022-10-14T16:26:48.881Z,20.88
2022-10-14T16:29:18.019Z,23.38
2022-10-14T16:31:49.901Z,23.00
2022-10-14T16:34:18.378Z,23.92
2022-10-14T16:36:46.477Z,21.17
2022-10-14T16:39:13.710Z,21.00
2022-10-14T16:41:40.595Z,24.92
2022-10-14T16:44:08.419Z,23.30
2022-10-14T16:46:55.538Z,23.05
2022-10-14T16:49:22.428Z,21.35
2022-10-14T16:51:49.242Z,23.42
2022-10-14T16:54:16.050Z,23.20
2022-10-14T16:56:54.787Z,24.63
2022-10-14T16:59:22.860Z,26.30
2022-10-14T17:01:51.136Z,22.02
2022-10-14T17:04:21.259Z,25.05
2022-10-14T17:06:55.676Z,23.30
2022-10-14T17:11:54.735Z,21.00
2022-10-14T17:14:22.968Z,22.45
2022-10-14T17:16:52.341Z,24.27
2022-10-14T17:19:19.895Z,25.77
2022-10-14T17:21:47.198Z,23.38
2022-10-14T17:24:16.923Z,23.48
2022-10-14T17:26:45.340Z,20.20
2022-10-14T17:29:12.290Z,22.50
2022-10-14T17:31:39.129Z,22.67
2022-10-14T17:34:09.147Z,22.48
2022-10-14T17:36:36.005Z,22.73
2022-10-14T17:39:03.313Z,23.17
2022-10-14T17:41:30.693Z,22.83
2022-10-14T17:44:00.256Z,23.73
2022-10-14T17:46:29.401Z,23.85
2022-10-14T17:49:01.184Z,22.15
2022-10-14T17:51:28.718Z,21.35
2022-10-14T17:54:00.248Z,22.45
2022-10-14T17:56:29.480Z,22.85
2022-10-14T17:58:59.239Z,22.98
2022-10-14T18:04:10.949Z,23.08
2022-10-14T18:06:37.965Z,23.92
2022-10-14T18:09:08.292Z,22.77
2022-10-14T18:12:03.915Z,21.60
2022-10-14T18:14:27.823Z,23.85
2022-10-14T18:16:54.762Z,23.48
2022-10-14T18:19:21.707Z,20.90
2022-10-14T18:21:48.539Z,22.92
2022-10-14T18:24:15.427Z,22.50
2022-10-14T18:26:42.390Z,21.15
2022-10-14T18:29:09.419Z,19.10
2022-10-14T18:31:37.400Z,19.00
2022-10-14T18:34:06.978Z,23.83
2022-10-14T18:36:33.761Z,20.27
2022-10-14T18:39:04.768Z,19.88
2022-10-14T18:41:31.750Z,19.20
2022-10-14T18:43:59.404Z,20.17
2022-10-14T18:46:31.819Z,20.17
2022-10-14T18:49:00.177Z,18.23
2022-10-14T18:51:30.064Z,21.23
2022-10-14T18:54:00.117Z,19.75
2022-10-14T18:56:30.735Z,21.27
2022-10-14T19:01:37.081Z,21.90
2022-10-14T19:04:05.919Z,18.55
2022-10-14T19:06:33.704Z,19.10
2022-10-14T19:09:04.051Z,20.00
2022-10-14T19:11:32.768Z,19.85
2022-10-14T19:14:03.585Z,18.75
2022-10-14T19:16:32.779Z,17.83
2022-10-14T19:19:03.956Z,15.82
2022-10-14T19:21:31.627Z,18.02
2022-10-14T19:23:59.979Z,18.00
2022-10-14T19:26:30.985Z,17.08
2022-10-14T19:28:59.563Z,17.08
2022-10-14T19:31:29.295Z,17.38
2022-10-14T19:33:57.144Z,17.02
2022-10-14T19:36:25.911Z,16.25
2022-10-14T19:38:57.747Z,17.23
2022-10-14T19:41:30.217Z,18.35
2022-10-14T19:43:58.505Z,20.13
2022-10-14T19:46:27.563Z,17.02
2022-10-14T19:49:04.915Z,16.88
2022-10-14T19:51:33.491Z,15.88
2022-10-14T19:54:00.800Z,19.50
2022-10-14T19:56:28.316Z,16.60
2022-10-14T19:58:58.012Z,17.00
2022-10-14T20:01:28.047Z,16.70
2022-10-14T20:03:55.374Z,18.48
2022-10-14T20:06:23.415Z,15.88
2022-10-14T20:08:51.213Z,14.93
2022-10-14T20:11:21.154Z,15.80
2022-10-14T20:16:16.071Z,17.00
2022-10-14T20:18:43.487Z,14.82
2022-10-14T20:21:13.788Z,15.18
2022-10-14T20:23:40.884Z,17.98
2022-10-14T20:26:11.345Z,16.80
2022-10-14T20:29:05.013Z,15.38
2022-10-14T20:32:00.588Z,17.25
2022-10-14T20:35:14.176Z,14.07
2022-10-14T20:38:06.488Z,14.57
2022-10-14T20:41:15.977Z,13.93
2022-10-14T20:43:45.341Z,15.15
2022-10-14T20:46:15.868Z,13.18
2022-10-14T20:48:50.839Z,15.43
2022-10-14T20:51:34.196Z,13.65
2022-10-14T20:54:11.692Z,13.20
2022-10-14T20:56:55.604Z,14.77
2022-10-14T20:59:54.890Z,15.25
2022-10-14T21:02:31.950Z,12.85
2022-10-14T21:05:13.460Z,15.00
2022-10-14T21:07:45.715Z,14.70
2022-10-14T21:10:57.110Z,12.25
2022-10-14T21:17:16.170Z,13.23
2022-10-14T21:19:55.672Z,12.45
2022-10-14T21:23:01.733Z,13.23
2022-10-14T21:25:44.658Z,16.15
2022-10-14T21:28:19.710Z,14.85
2022-10-14T21:30:49.636Z,13.20
2022-10-14T21:36:01.608Z,17.25
2022-10-14T21:42:02.486Z,13.20
2022-10-14T21:44:38.222Z,14.38
2022-10-14T21:47:19.301Z,11.80
2022-10-14T21:55:57.986Z,14.90
2022-10-14T21:58:49.380Z,15.50
2022-10-14T22:01:44.762Z,16.75
2022-10-14T22:04:40.741Z,15.55
2022-10-14T22:07:19.022Z,14.38
2022-10-14T22:20:37.154Z,16.92
2022-10-14T22:23:12.538Z,18.23
2022-10-14T22:25:40.484Z,22.15
2022-10-14T22:28:10.323Z,17.02
2022-10-14T22:30:37.988Z,17.33
2022-10-14T22:33:19.037Z,20.38
2022-10-14T22:35:46.791Z,19.40
2022-10-14T22:38:16.518Z,24.45
2022-10-14T22:40:44.159Z,18.88
2022-10-14T22:43:20.438Z,18.92
2022-10-14T22:45:59.884Z,20.58
2022-10-14T22:48:28.436Z,16.65
2022-10-14T22:51:05.141Z,16.88
2022-10-14T22:53:34.281Z,19.58
2022-10-14T22:56:07.361Z,17.02
2022-10-14T22:58:36.593Z,15.35
2022-10-14T23:01:13.284Z,16.90
2022-10-14T23:03:47.464Z,15.15
2022-10-14T23:06:19.669Z,19.70
2022-10-14T23:35:14.081Z,19.80
2022-10-14T23:37:43.975Z,16.45
2022-10-14T23:40:15.201Z,18.35
2022-10-14T23:42:49.282Z,15.88
2022-10-14T23:45:17.901Z,15.57
2022-10-14T23:47:45.797Z,19.45
2022-10-14T23:50:16.406Z,15.55
2022-10-14T23:52:54.063Z,17.10
2022-10-14T23:55:25.000Z,18.50
2022-10-14T23:57:52.858Z,17.50
